sensor_id;sensor_type;location;lat;lon;timestamp;noise_LAeq;noise_LA_min;noise_LA_max;noise_LA01;noise_LA95
68279;Laerm;55108;51.790;10.960;2023-04-24T00:00:20;55.33;26.32;72.64;;
68279;Laerm;55108;51.790;10.960;2023-04-24T00:02:45;52.34;26.69;70.29;;
68279;Laerm;55108;51.790;10.960;2023-04-24T00:05:13;49.73;26.31;67.35;;
68279;Laerm;55108;51.790;10.960;2023-04-24T00:07:39;31.29;26.18;55.49;;
68279;Laerm;55108;51.790;10.960;2023-04-24T00:10:05;34.33;26.54;44.63;;
68279;Laerm;55108;51.790;10.960;2023-04-24T00:12:30;33.39;26.10;46.54;;
68279;Laerm;55108;51.790;10.960;2023-04-24T00:14:55;27.24;25.97;30.36;;
68279;Laerm;55108;51.790;10.960;2023-04-24T00:17:20;27.24;25.80;30.00;;
68279;Laerm;55108;51.790;10.960;2023-04-24T00:19:46;60.79;25.91;79.16;;
68279;Laerm;55108;51.790;10.960;2023-04-24T00:22:11;28.15;26.00;34.92;;
68279;Laerm;55108;51.790;10.960;2023-04-24T00:24:38;27.05;25.85;29.15;;
68279;Laerm;55108;51.790;10.960;2023-04-24T00:27:03;27.34;25.84;31.35;;
68279;Laerm;55108;51.790;10.960;2023-04-24T00:29:28;29.64;26.93;38.05;;
68279;Laerm;55108;51.790;10.960;2023-04-24T00:31:53;57.41;26.46;76.74;;
68279;Laerm;55108;51.790;10.960;2023-04-24T00:34:19;35.86;25.99;53.61;;
68279;Laerm;55108;51.790;10.960;2023-04-24T00:36:44;64.63;25.97;87.65;;
68279;Laerm;55108;51.790;10.960;2023-04-24T00:39:09;42.15;25.91;55.79;;
68279;Laerm;55108;51.790;10.960;2023-04-24T00:41:34;27.33;25.84;29.95;;
68279;Laerm;55108;51.790;10.960;2023-04-24T00:44:00;28.86;26.46;33.96;;
68279;Laerm;55108;51.790;10.960;2023-04-24T00:46:25;58.75;26.27;77.42;;
68279;Laerm;55108;51.790;10.960;2023-04-24T00:48:50;29.07;26.25;43.93;;
68279;Laerm;55108;51.790;10.960;2023-04-24T00:51:15;60.31;25.99;80.14;;
68279;Laerm;55108;51.790;10.960;2023-04-24T00:53:40;56.67;26.18;74.47;;
68279;Laerm;55108;51.790;10.960;2023-04-24T00:56:05;27.26;25.97;29.63;;
68279;Laerm;55108;51.790;10.960;2023-04-24T00:58:31;32.38;26.10;43.92;;
68279;Laerm;55108;51.790;10.960;2023-04-24T01:00:56;28.72;26.12;38.69;;
68279;Laerm;55108;51.790;10.960;2023-04-24T01:03:22;28.86;26.13;38.14;;
68279;Laerm;55108;51.790;10.960;2023-04-24T01:05:49;61.93;26.28;80.70;;
68279;Laerm;55108;51.790;10.960;2023-04-24T01:08:14;28.96;26.46;34.94;;
68279;Laerm;55108;51.790;10.960;2023-04-24T01:10:40;53.68;26.41;70.84;;
68279;Laerm;55108;51.790;10.960;2023-04-24T01:13:05;62.37;27.94;80.26;;
68279;Laerm;55108;51.790;10.960;2023-04-24T01:15:32;49.00;26.86;66.56;;
68279;Laerm;55108;51.790;10.960;2023-04-24T01:17:57;62.40;26.47;80.67;;
68279;Laerm;55108;51.790;10.960;2023-04-24T01:20:22;29.25;26.44;41.37;;
68279;Laerm;55108;51.790;10.960;2023-04-24T01:22:49;60.99;26.89;78.40;;
68279;Laerm;55108;51.790;10.960;2023-04-24T01:25:14;37.80;26.09;55.51;;
68279;Laerm;55108;51.790;10.960;2023-04-24T01:27:39;30.23;26.34;37.72;;
68279;Laerm;55108;51.790;10.960;2023-04-24T01:30:05;32.73;26.11;55.09;;
68279;Laerm;55108;51.790;10.960;2023-04-24T01:32:31;31.39;26.85;40.87;;
68279;Laerm;55108;51.790;10.960;2023-04-24T01:34:56;53.59;27.72;71.88;;
68279;Laerm;55108;51.790;10.960;2023-04-24T01:37:22;29.04;26.90;37.68;;
68279;Laerm;55108;51.790;10.960;2023-04-24T01:39:47;58.46;26.96;74.74;;
68279;Laerm;55108;51.790;10.960;2023-04-24T01:42:12;42.02;27.49;64.13;;
68279;Laerm;55108;51.790;10.960;2023-04-24T01:44:37;56.42;28.62;75.33;;
68279;Laerm;55108;51.790;10.960;2023-04-24T01:47:03;59.47;27.29;77.64;;
68279;Laerm;55108;51.790;10.960;2023-04-24T01:49:28;33.94;27.62;50.50;;
68279;Laerm;55108;51.790;10.960;2023-04-24T01:51:54;60.14;28.38;77.27;;
68279;Laerm;55108;51.790;10.960;2023-04-24T01:54:19;61.41;29.35;79.36;;
68279;Laerm;55108;51.790;10.960;2023-04-24T01:56:44;35.60;28.61;54.23;;
68279;Laerm;55108;51.790;10.960;2023-04-24T01:59:10;65.57;34.55;81.89;;
68279;Laerm;55108;51.790;10.960;2023-04-24T02:01:36;61.21;31.09;80.31;;
68279;Laerm;55108;51.790;10.960;2023-04-24T02:04:02;65.24;32.00;80.46;;
68279;Laerm;55108;51.790;10.960;2023-04-24T02:06:27;41.15;32.00;60.09;;
68279;Laerm;55108;51.790;10.960;2023-04-24T02:08:52;59.19;34.62;75.74;;
68279;Laerm;55108;51.790;10.960;2023-04-24T02:11:17;56.75;34.15;72.38;;
68279;Laerm;55108;51.790;10.960;2023-04-24T02:13:43;53.51;32.84;70.61;;
68279;Laerm;55108;51.790;10.960;2023-04-24T02:16:08;61.19;33.05;78.33;;
68279;Laerm;55108;51.790;10.960;2023-04-24T02:18:33;40.98;34.05;51.56;;
68279;Laerm;55108;51.790;10.960;2023-04-24T02:20:58;61.04;35.28;78.02;;
68279;Laerm;55108;51.790;10.960;2023-04-24T02:23:24;59.46;33.11;73.91;;
68279;Laerm;55108;51.790;10.960;2023-04-24T02:25:49;39.23;33.82;56.38;;
68279;Laerm;55108;51.790;10.960;2023-04-24T02:28:14;54.05;32.56;72.19;;
68279;Laerm;55108;51.790;10.960;2023-04-24T02:30:39;36.09;32.20;44.83;;
68279;Laerm;55108;51.790;10.960;2023-04-24T02:33:04;56.76;33.42;75.99;;
68279;Laerm;55108;51.790;10.960;2023-04-24T02:35:29;63.84;35.69;81.27;;
68279;Laerm;55108;51.790;10.960;2023-04-24T02:37:55;66.94;34.76;82.36;;
68279;Laerm;55108;51.790;10.960;2023-04-24T02:40:20;63.15;32.99;81.68;;
68279;Laerm;55108;51.790;10.960;2023-04-24T02:42:45;61.56;33.92;78.72;;
68279;Laerm;55108;51.790;10.960;2023-04-24T02:45:10;62.73;34.21;76.21;;
68279;Laerm;55108;51.790;10.960;2023-04-24T02:47:35;56.48;34.84;75.31;;
68279;Laerm;55108;51.790;10.960;2023-04-24T02:50:01;62.43;34.35;79.07;;
68279;Laerm;55108;51.790;10.960;2023-04-24T02:52:26;58.70;33.75;76.06;;
68279;Laerm;55108;51.790;10.960;2023-04-24T02:54:51;39.87;33.52;47.51;;
68279;Laerm;55108;51.790;10.960;2023-04-24T02:57:18;60.16;33.18;74.92;;
68279;Laerm;55108;51.790;10.960;2023-04-24T02:59:43;63.19;36.12;81.22;;
68279;Laerm;55108;51.790;10.960;2023-04-24T03:02:08;64.77;34.85;82.96;;
68279;Laerm;55108;51.790;10.960;2023-04-24T03:04:33;61.74;33.25;78.70;;
68279;Laerm;55108;51.790;10.960;2023-04-24T03:06:59;53.93;33.79;71.31;;
68279;Laerm;55108;51.790;10.960;2023-04-24T03:09:24;61.09;35.08;75.19;;
68279;Laerm;55108;51.790;10.960;2023-04-24T03:11:49;48.89;35.05;65.14;;
68279;Laerm;55108;51.790;10.960;2023-04-24T03:14:15;59.18;37.97;75.25;;
68279;Laerm;55108;51.790;10.960;2023-04-24T03:16:40;62.13;38.27;76.93;;
68279;Laerm;55108;51.790;10.960;2023-04-24T03:19:05;60.68;36.95;74.08;;
68279;Laerm;55108;51.790;10.960;2023-04-24T03:21:30;63.17;39.18;76.68;;
68279;Laerm;55108;51.790;10.960;2023-04-24T03:23:56;65.45;40.31;86.94;;
68279;Laerm;55108;51.790;10.960;2023-04-24T03:26:21;63.47;40.07;78.73;;
68279;Laerm;55108;51.790;10.960;2023-04-24T03:28:46;59.92;38.65;74.06;;
68279;Laerm;55108;51.790;10.960;2023-04-24T03:31:11;61.89;39.60;76.59;;
68279;Laerm;55108;51.790;10.960;2023-04-24T03:33:36;64.80;38.67;79.97;;
68279;Laerm;55108;51.790;10.960;2023-04-24T03:36:01;62.72;39.25;77.31;;
68279;Laerm;55108;51.790;10.960;2023-04-24T03:38:26;65.14;42.21;78.26;;
68279;Laerm;55108;51.790;10.960;2023-04-24T03:40:51;59.36;39.58;75.10;;
68279;Laerm;55108;51.790;10.960;2023-04-24T03:43:17;66.46;43.62;77.76;;
68279;Laerm;55108;51.790;10.960;2023-04-24T03:45:42;64.56;39.37;78.98;;
68279;Laerm;55108;51.790;10.960;2023-04-24T03:48:07;64.77;41.22;76.20;;
68279;Laerm;55108;51.790;10.960;2023-04-24T03:50:32;63.50;39.55;75.14;;
68279;Laerm;55108;51.790;10.960;2023-04-24T03:52:57;68.59;42.63;83.87;;
68279;Laerm;55108;51.790;10.960;2023-04-24T03:55:22;65.21;38.97;80.46;;
68279;Laerm;55108;51.790;10.960;2023-04-24T03:57:48;66.79;41.12;78.44;;
68279;Laerm;55108;51.790;10.960;2023-04-24T04:00:13;67.48;41.37;81.65;;
68279;Laerm;55108;51.790;10.960;2023-04-24T04:02:39;68.09;38.31;81.11;;
68279;Laerm;55108;51.790;10.960;2023-04-24T04:05:04;64.27;35.79;82.00;;
68279;Laerm;55108;51.790;10.960;2023-04-24T04:07:30;64.29;37.94;77.55;;
68279;Laerm;55108;51.790;10.960;2023-04-24T04:09:55;64.83;36.71;78.11;;
68279;Laerm;55108;51.790;10.960;2023-04-24T04:12:20;64.61;38.35;76.96;;
68279;Laerm;55108;51.790;10.960;2023-04-24T04:14:45;66.40;43.67;81.59;;
68279;Laerm;55108;51.790;10.960;2023-04-24T04:17:10;64.20;40.70;75.17;;
68279;Laerm;55108;51.790;10.960;2023-04-24T04:19:35;61.82;38.09;75.73;;
68279;Laerm;55108;51.790;10.960;2023-04-24T04:22:01;66.16;42.27;78.18;;
68279;Laerm;55108;51.790;10.960;2023-04-24T04:24:26;66.30;39.95;77.55;;
68279;Laerm;55108;51.790;10.960;2023-04-24T04:26:51;67.14;46.66;78.16;;
68279;Laerm;55108;51.790;10.960;2023-04-24T04:29:17;68.04;39.12;85.45;;
68279;Laerm;55108;51.790;10.960;2023-04-24T04:31:43;68.11;39.99;82.36;;
68279;Laerm;55108;51.790;10.960;2023-04-24T04:34:08;66.67;44.21;76.81;;
68279;Laerm;55108;51.790;10.960;2023-04-24T04:36:34;67.58;43.74;88.97;;
68279;Laerm;55108;51.790;10.960;2023-04-24T04:39:01;69.26;49.47;82.21;;
68279;Laerm;55108;51.790;10.960;2023-04-24T04:41:27;64.37;42.55;75.26;;
68279;Laerm;55108;51.790;10.960;2023-04-24T04:43:52;65.98;40.28;78.56;;
68279;Laerm;55108;51.790;10.960;2023-04-24T04:46:17;67.70;40.56;82.37;;
68279;Laerm;55108;51.790;10.960;2023-04-24T04:48:43;68.03;42.23;87.07;;
68279;Laerm;55108;51.790;10.960;2023-04-24T04:51:08;68.84;46.23;83.18;;
68279;Laerm;55108;51.790;10.960;2023-04-24T04:53:33;67.06;46.84;80.49;;
68279;Laerm;55108;51.790;10.960;2023-04-24T04:55:58;66.13;36.33;77.89;;
68279;Laerm;55108;51.790;10.960;2023-04-24T04:58:24;66.65;36.54;79.43;;
68279;Laerm;55108;51.790;10.960;2023-04-24T05:00:49;66.65;40.24;77.10;;
68279;Laerm;55108;51.790;10.960;2023-04-24T05:03:14;67.79;48.14;79.09;;
68279;Laerm;55108;51.790;10.960;2023-04-24T05:05:39;66.56;44.64;77.37;;
68279;Laerm;55108;51.790;10.960;2023-04-24T05:08:06;66.74;42.54;79.73;;
68279;Laerm;55108;51.790;10.960;2023-04-24T05:10:31;68.66;40.18;79.77;;
68279;Laerm;55108;51.790;10.960;2023-04-24T05:12:56;66.01;39.90;77.46;;
68279;Laerm;55108;51.790;10.960;2023-04-24T05:15:21;68.99;51.53;77.19;;
68279;Laerm;55108;51.790;10.960;2023-04-24T05:17:46;67.33;41.94;80.27;;
68279;Laerm;55108;51.790;10.960;2023-04-24T05:20:11;69.23;52.48;82.22;;
68279;Laerm;55108;51.790;10.960;2023-04-24T05:22:36;66.42;41.47;78.64;;
68279;Laerm;55108;51.790;10.960;2023-04-24T05:25:02;66.45;44.12;79.72;;
68279;Laerm;55108;51.790;10.960;2023-04-24T05:27:27;68.05;43.75;82.12;;
68279;Laerm;55108;51.790;10.960;2023-04-24T05:29:52;66.66;42.42;79.08;;
68279;Laerm;55108;51.790;10.960;2023-04-24T05:32:18;68.05;48.23;79.77;;
68279;Laerm;55108;51.790;10.960;2023-04-24T05:34:43;68.16;49.72;80.51;;
68279;Laerm;55108;51.790;10.960;2023-04-24T05:37:08;69.24;48.93;83.14;;
68279;Laerm;55108;51.790;10.960;2023-04-24T05:39:34;66.89;49.14;80.61;;
68279;Laerm;55108;51.790;10.960;2023-04-24T05:42:00;67.37;52.13;80.18;;
68279;Laerm;55108;51.790;10.960;2023-04-24T05:44:26;68.96;52.82;82.84;;
68279;Laerm;55108;51.790;10.960;2023-04-24T05:46:51;68.30;54.31;82.98;;
68279;Laerm;55108;51.790;10.960;2023-04-24T05:49:17;70.70;51.19;82.09;;
68279;Laerm;55108;51.790;10.960;2023-04-24T05:51:42;67.85;50.23;79.38;;
68279;Laerm;55108;51.790;10.960;2023-04-24T05:54:07;65.20;48.09;76.13;;
68279;Laerm;55108;51.790;10.960;2023-04-24T05:56:32;68.24;51.94;78.91;;
68279;Laerm;55108;51.790;10.960;2023-04-24T05:58:57;65.78;49.89;76.71;;
68279;Laerm;55108;51.790;10.960;2023-04-24T06:01:22;68.48;50.09;79.06;;
68279;Laerm;55108;51.790;10.960;2023-04-24T06:03:48;67.52;50.27;78.46;;
68279;Laerm;55108;51.790;10.960;2023-04-24T06:06:13;68.56;46.27;86.11;;
68279;Laerm;55108;51.790;10.960;2023-04-24T06:08:38;67.25;46.59;77.43;;
68279;Laerm;55108;51.790;10.960;2023-04-24T06:11:03;67.68;46.02;82.02;;
68279;Laerm;55108;51.790;10.960;2023-04-24T06:13:28;65.83;48.91;77.55;;
68279;Laerm;55108;51.790;10.960;2023-04-24T06:15:53;68.89;52.88;78.54;;
68279;Laerm;55108;51.790;10.960;2023-04-24T06:18:19;71.42;62.83;77.77;;
68279;Laerm;55108;51.790;10.960;2023-04-24T06:20:44;74.52;62.27;86.31;;
68279;Laerm;55108;51.790;10.960;2023-04-24T06:23:10;68.83;55.83;78.12;;
68279;Laerm;55108;51.790;10.960;2023-04-24T06:25:35;68.80;52.65;79.85;;
68279;Laerm;55108;51.790;10.960;2023-04-24T06:28:00;70.03;50.99;82.88;;
68279;Laerm;55108;51.790;10.960;2023-04-24T06:30:26;67.26;54.54;78.50;;
68279;Laerm;55108;51.790;10.960;2023-04-24T06:32:53;70.22;53.27;87.45;;
68279;Laerm;55108;51.790;10.960;2023-04-24T06:35:18;68.14;51.44;80.08;;
68279;Laerm;55108;51.790;10.960;2023-04-24T06:37:43;67.47;48.73;81.01;;
68279;Laerm;55108;51.790;10.960;2023-04-24T06:40:08;69.21;49.52;82.47;;
68279;Laerm;55108;51.790;10.960;2023-04-24T06:42:34;66.97;44.37;83.22;;
68279;Laerm;55108;51.790;10.960;2023-04-24T06:45:00;67.16;44.96;81.00;;
68279;Laerm;55108;51.790;10.960;2023-04-24T06:47:25;68.28;46.01;79.17;;
68279;Laerm;55108;51.790;10.960;2023-04-24T06:49:50;65.69;45.82;76.35;;
68279;Laerm;55108;51.790;10.960;2023-04-24T06:52:17;68.38;52.69;80.17;;
68279;Laerm;55108;51.790;10.960;2023-04-24T06:54:42;67.03;48.54;81.61;;
68279;Laerm;55108;51.790;10.960;2023-04-24T06:57:08;67.72;47.55;76.59;;
68279;Laerm;55108;51.790;10.960;2023-04-24T06:59:33;67.53;44.25;77.31;;
68279;Laerm;55108;51.790;10.960;2023-04-24T07:01:58;67.45;43.14;81.03;;
68279;Laerm;55108;51.790;10.960;2023-04-24T07:04:23;67.28;44.27;78.85;;
68279;Laerm;55108;51.790;10.960;2023-04-24T07:06:50;68.98;50.51;81.60;;
68279;Laerm;55108;51.790;10.960;2023-04-24T07:09:16;66.40;39.64;78.12;;
68279;Laerm;55108;51.790;10.960;2023-04-24T07:11:43;69.59;44.45;82.34;;
68279;Laerm;55108;51.790;10.960;2023-04-24T07:14:09;66.86;45.29;78.78;;
68279;Laerm;55108;51.790;10.960;2023-04-24T07:16:34;67.15;44.61;80.26;;
68279;Laerm;55108;51.790;10.960;2023-04-24T07:19:00;68.86;43.37;83.15;;
68279;Laerm;55108;51.790;10.960;2023-04-24T07:21:25;66.70;41.19;75.20;;
68279;Laerm;55108;51.790;10.960;2023-04-24T07:23:50;67.37;43.72;78.13;;
68279;Laerm;55108;51.790;10.960;2023-04-24T07:26:16;68.67;44.98;82.91;;
68279;Laerm;55108;51.790;10.960;2023-04-24T07:28:41;65.45;45.70;78.97;;
68279;Laerm;55108;51.790;10.960;2023-04-24T07:31:06;64.86;46.17;75.88;;
68279;Laerm;55108;51.790;10.960;2023-04-24T07:33:31;68.33;47.55;83.68;;
68279;Laerm;55108;51.790;10.960;2023-04-24T07:35:57;66.62;43.02;77.64;;
68279;Laerm;55108;51.790;10.960;2023-04-24T07:38:22;68.63;50.50;78.00;;
68279;Laerm;55108;51.790;10.960;2023-04-24T07:40:47;67.68;43.51;78.26;;
68279;Laerm;55108;51.790;10.960;2023-04-24T07:43:12;65.11;41.95;76.03;;
68279;Laerm;55108;51.790;10.960;2023-04-24T07:45:38;68.39;43.72;81.25;;
68279;Laerm;55108;51.790;10.960;2023-04-24T07:48:04;66.97;47.91;78.70;;
68279;Laerm;55108;51.790;10.960;2023-04-24T07:50:29;67.44;45.21;81.14;;
68279;Laerm;55108;51.790;10.960;2023-04-24T07:52:54;66.80;45.23;76.74;;
68279;Laerm;55108;51.790;10.960;2023-04-24T07:55:20;68.85;47.60;81.60;;
68279;Laerm;55108;51.790;10.960;2023-04-24T07:57:45;65.58;39.68;76.73;;
68279;Laerm;55108;51.790;10.960;2023-04-24T08:00:10;69.05;51.32;80.22;;
68279;Laerm;55108;51.790;10.960;2023-04-24T08:02:35;67.96;46.96;81.52;;
68279;Laerm;55108;51.790;10.960;2023-04-24T08:05:01;66.70;45.76;78.05;;
68279;Laerm;55108;51.790;10.960;2023-04-24T08:07:27;68.16;46.20;83.64;;
68279;Laerm;55108;51.790;10.960;2023-04-24T08:09:53;67.74;41.68;84.30;;
68279;Laerm;55108;51.790;10.960;2023-04-24T08:12:18;68.64;46.94;81.52;;
68279;Laerm;55108;51.790;10.960;2023-04-24T08:14:43;64.89;45.77;78.97;;
68279;Laerm;55108;51.790;10.960;2023-04-24T08:17:08;68.07;45.01;83.08;;
68279;Laerm;55108;51.790;10.960;2023-04-24T08:19:33;67.85;48.57;79.95;;
68279;Laerm;55108;51.790;10.960;2023-04-24T08:21:58;65.80;44.35;80.28;;
68279;Laerm;55108;51.790;10.960;2023-04-24T08:24:23;67.81;48.28;78.04;;
68279;Laerm;55108;51.790;10.960;2023-04-24T08:26:49;67.68;47.24;80.60;;
68279;Laerm;55108;51.790;10.960;2023-04-24T08:29:18;64.74;46.05;73.88;;
68279;Laerm;55108;51.790;10.960;2023-04-24T08:31:44;65.56;45.03;77.89;;
68279;Laerm;55108;51.790;10.960;2023-04-24T08:34:09;66.86;45.29;80.97;;
68279;Laerm;55108;51.790;10.960;2023-04-24T08:36:35;66.21;44.67;77.59;;
68279;Laerm;55108;51.790;10.960;2023-04-24T08:39:00;68.10;45.55;87.45;;
68279;Laerm;55108;51.790;10.960;2023-04-24T08:41:26;65.28;44.15;76.82;;
68279;Laerm;55108;51.790;10.960;2023-04-24T08:43:51;66.71;46.04;77.69;;
68279;Laerm;55108;51.790;10.960;2023-04-24T08:46:17;68.92;43.14;80.89;;
68279;Laerm;55108;51.790;10.960;2023-04-24T08:48:43;66.49;41.14;77.43;;
68279;Laerm;55108;51.790;10.960;2023-04-24T08:51:08;66.83;41.93;77.23;;
68279;Laerm;55108;51.790;10.960;2023-04-24T08:53:34;67.45;43.86;81.19;;
68279;Laerm;55108;51.790;10.960;2023-04-24T08:55:59;68.93;48.30;79.01;;
68279;Laerm;55108;51.790;10.960;2023-04-24T08:58:26;65.47;45.64;75.06;;
68279;Laerm;55108;51.790;10.960;2023-04-24T09:00:52;66.89;44.97;78.73;;
68279;Laerm;55108;51.790;10.960;2023-04-24T09:03:19;69.29;45.88;82.69;;
68279;Laerm;55108;51.790;10.960;2023-04-24T09:05:46;69.57;48.87;82.57;;
68279;Laerm;55108;51.790;10.960;2023-04-24T09:08:12;69.22;48.04;80.37;;
68279;Laerm;55108;51.790;10.960;2023-04-24T09:10:38;68.70;47.74;83.54;;
68279;Laerm;55108;51.790;10.960;2023-04-24T09:13:03;66.24;43.36;79.08;;
68279;Laerm;55108;51.790;10.960;2023-04-24T09:15:29;68.45;51.57;82.29;;
68279;Laerm;55108;51.790;10.960;2023-04-24T09:17:55;66.84;47.65;78.66;;
68279;Laerm;55108;51.790;10.960;2023-04-24T09:20:20;64.51;41.34;75.49;;
68279;Laerm;55108;51.790;10.960;2023-04-24T09:22:45;68.35;48.84;80.95;;
68279;Laerm;55108;51.790;10.960;2023-04-24T09:25:10;68.44;50.68;80.69;;
68279;Laerm;55108;51.790;10.960;2023-04-24T09:27:38;63.98;45.97;74.68;;
68279;Laerm;55108;51.790;10.960;2023-04-24T09:30:06;68.00;48.19;78.69;;
68279;Laerm;55108;51.790;10.960;2023-04-24T09:32:32;67.73;49.72;76.37;;
68279;Laerm;55108;51.790;10.960;2023-04-24T09:35:13;68.21;47.81;78.95;;
68279;Laerm;55108;51.790;10.960;2023-04-24T09:37:39;68.34;45.75;80.03;;
68279;Laerm;55108;51.790;10.960;2023-04-24T09:42:35;70.27;43.85;86.18;;
68279;Laerm;55108;51.790;10.960;2023-04-24T09:45:01;66.29;42.25;80.48;;
68279;Laerm;55108;51.790;10.960;2023-04-24T09:47:26;69.31;42.43;88.61;;
68279;Laerm;55108;51.790;10.960;2023-04-24T09:49:51;64.43;44.17;73.17;;
68279;Laerm;55108;51.790;10.960;2023-04-24T09:52:22;67.16;39.81;81.03;;
68279;Laerm;55108;51.790;10.960;2023-04-24T09:54:52;65.24;39.44;76.79;;
68279;Laerm;55108;51.790;10.960;2023-04-24T09:57:17;67.65;41.46;79.77;;
68279;Laerm;55108;51.790;10.960;2023-04-24T09:59:42;65.28;43.81;78.83;;
68279;Laerm;55108;51.790;10.960;2023-04-24T10:02:21;65.71;42.31;78.89;;
68279;Laerm;55108;51.790;10.960;2023-04-24T10:04:56;68.54;50.15;80.65;;
68279;Laerm;55108;51.790;10.960;2023-04-24T10:07:21;66.40;42.68;78.25;;
68279;Laerm;55108;51.790;10.960;2023-04-24T10:09:46;67.63;40.45;82.79;;
68279;Laerm;55108;51.790;10.960;2023-04-24T10:12:12;69.23;43.13;82.09;;
68279;Laerm;55108;51.790;10.960;2023-04-24T10:14:37;66.95;40.20;84.21;;
68279;Laerm;55108;51.790;10.960;2023-04-24T10:17:02;66.80;39.67;79.57;;
68279;Laerm;55108;51.790;10.960;2023-04-24T10:19:28;67.91;42.67;87.12;;
68279;Laerm;55108;51.790;10.960;2023-04-24T10:21:54;67.98;45.30;81.82;;
68279;Laerm;55108;51.790;10.960;2023-04-24T10:24:21;69.24;45.01;81.83;;
68279;Laerm;55108;51.790;10.960;2023-04-24T10:26:46;66.26;44.97;78.09;;
68279;Laerm;55108;51.790;10.960;2023-04-24T10:29:13;68.09;46.15;79.22;;
68279;Laerm;55108;51.790;10.960;2023-04-24T10:31:40;66.44;43.25;77.07;;
68279;Laerm;55108;51.790;10.960;2023-04-24T10:34:11;69.91;48.87;82.57;;
68279;Laerm;55108;51.790;10.960;2023-04-24T10:36:41;69.45;48.04;80.81;;
68279;Laerm;55108;51.790;10.960;2023-04-24T10:39:08;67.51;47.68;79.37;;
68279;Laerm;55108;51.790;10.960;2023-04-24T10:41:36;65.00;44.79;76.64;;
68279;Laerm;55108;51.790;10.960;2023-04-24T10:44:12;68.60;45.98;85.87;;
68279;Laerm;55108;51.790;10.960;2023-04-24T10:46:37;67.03;46.05;79.74;;
68279;Laerm;55108;51.790;10.960;2023-04-24T10:49:04;67.62;48.70;81.82;;
68279;Laerm;55108;51.790;10.960;2023-04-24T10:51:50;68.74;46.81;84.68;;
68279;Laerm;55108;51.790;10.960;2023-04-24T10:54:22;65.82;43.17;80.26;;
68279;Laerm;55108;51.790;10.960;2023-04-24T10:56:48;64.83;45.37;77.45;;
68279;Laerm;55108;51.790;10.960;2023-04-24T10:59:13;67.74;40.86;82.27;;
68279;Laerm;55108;51.790;10.960;2023-04-24T11:01:52;67.84;45.56;86.51;;
68279;Laerm;55108;51.790;10.960;2023-04-24T11:04:22;66.58;41.39;78.39;;
68279;Laerm;55108;51.790;10.960;2023-04-24T11:06:53;70.78;60.63;80.79;;
68279;Laerm;55108;51.790;10.960;2023-04-24T11:09:18;68.34;47.05;82.21;;
68279;Laerm;55108;51.790;10.960;2023-04-24T11:11:46;64.52;39.63;75.47;;
68279;Laerm;55108;51.790;10.960;2023-04-24T11:14:14;67.07;43.42;77.60;;
68279;Laerm;55108;51.790;10.960;2023-04-24T11:16:52;66.10;42.48;81.96;;
68279;Laerm;55108;51.790;10.960;2023-04-24T11:21:43;67.22;45.62;81.46;;
68279;Laerm;55108;51.790;10.960;2023-04-24T11:26:56;70.97;46.28;79.93;;
68279;Laerm;55108;51.790;10.960;2023-04-24T11:29:22;72.73;64.32;81.53;;
68279;Laerm;55108;51.790;10.960;2023-04-24T11:31:48;72.30;65.52;81.70;;
68279;Laerm;55108;51.790;10.960;2023-04-24T11:34:14;74.47;66.15;83.98;;
68279;Laerm;55108;51.790;10.960;2023-04-24T11:36:45;69.46;58.98;78.06;;
68279;Laerm;55108;51.790;10.960;2023-04-24T11:39:10;71.10;59.83;82.43;;
68279;Laerm;55108;51.790;10.960;2023-04-24T11:41:36;70.62;58.83;81.41;;
68279;Laerm;55108;51.790;10.960;2023-04-24T11:44:02;69.79;59.71;81.97;;
68279;Laerm;55108;51.790;10.960;2023-04-24T11:46:28;68.46;58.66;81.61;;
68279;Laerm;55108;51.790;10.960;2023-04-24T11:48:54;69.14;61.78;82.28;;
68279;Laerm;55108;51.790;10.960;2023-04-24T11:51:19;67.87;58.94;81.06;;
68279;Laerm;55108;51.790;10.960;2023-04-24T11:53:45;68.37;58.87;87.04;;
68279;Laerm;55108;51.790;10.960;2023-04-24T11:56:10;68.91;58.96;79.39;;
68279;Laerm;55108;51.790;10.960;2023-04-24T11:58:35;70.76;55.52;90.72;;
68279;Laerm;55108;51.790;10.960;2023-04-24T12:01:01;68.22;59.08;76.85;;
68279;Laerm;55108;51.790;10.960;2023-04-24T12:03:26;68.25;57.82;77.76;;
68279;Laerm;55108;51.790;10.960;2023-04-24T12:05:51;66.78;48.94;77.60;;
68279;Laerm;55108;51.790;10.960;2023-04-24T12:08:29;67.99;58.56;81.97;;
68279;Laerm;55108;51.790;10.960;2023-04-24T12:10:54;68.13;53.68;77.48;;
68279;Laerm;55108;51.790;10.960;2023-04-24T12:13:19;68.79;51.51;80.95;;
68279;Laerm;55108;51.790;10.960;2023-04-24T12:15:45;68.59;52.60;81.87;;
68279;Laerm;55108;51.790;10.960;2023-04-24T12:18:11;66.95;52.83;74.96;;
68279;Laerm;55108;51.790;10.960;2023-04-24T12:20:37;66.84;38.61;78.53;;
68279;Laerm;55108;51.790;10.960;2023-04-24T12:23:02;66.69;44.82;81.45;;
68279;Laerm;55108;51.790;10.960;2023-04-24T12:25:28;66.27;48.95;78.30;;
68279;Laerm;55108;51.790;10.960;2023-04-24T12:27:54;65.78;47.51;76.67;;
68279;Laerm;55108;51.790;10.960;2023-04-24T12:30:20;68.54;44.90;80.01;;
68279;Laerm;55108;51.790;10.960;2023-04-24T12:32:46;66.77;52.90;79.90;;
68279;Laerm;55108;51.790;10.960;2023-04-24T12:35:12;67.28;47.60;76.84;;
68279;Laerm;55108;51.790;10.960;2023-04-24T12:37:37;67.13;43.97;81.03;;
68279;Laerm;55108;51.790;10.960;2023-04-24T12:42:30;65.49;41.83;75.98;;
68279;Laerm;55108;51.790;10.960;2023-04-24T12:44:56;67.69;45.86;81.13;;
68279;Laerm;55108;51.790;10.960;2023-04-24T12:47:22;68.74;49.23;82.72;;
68279;Laerm;55108;51.790;10.960;2023-04-24T12:49:47;67.47;48.89;79.69;;
68279;Laerm;55108;51.790;10.960;2023-04-24T12:52:15;68.05;47.72;77.89;;
68279;Laerm;55108;51.790;10.960;2023-04-24T12:54:40;70.34;52.46;89.13;;
68279;Laerm;55108;51.790;10.960;2023-04-24T12:57:06;67.76;45.80;78.42;;
68279;Laerm;55108;51.790;10.960;2023-04-24T12:59:31;68.00;47.78;77.67;;
68279;Laerm;55108;51.790;10.960;2023-04-24T13:01:56;66.22;43.69;77.97;;
68279;Laerm;55108;51.790;10.960;2023-04-24T13:04:21;65.42;44.72;77.12;;
68279;Laerm;55108;51.790;10.960;2023-04-24T13:06:46;67.45;40.86;77.96;;
68279;Laerm;55108;51.790;10.960;2023-04-24T13:09:11;69.80;44.60;84.00;;
68279;Laerm;55108;51.790;10.960;2023-04-24T13:11:36;67.76;45.78;79.15;;
68279;Laerm;55108;51.790;10.960;2023-04-24T13:14:01;68.76;48.13;79.64;;
68279;Laerm;55108;51.790;10.960;2023-04-24T13:16:27;67.92;45.11;77.31;;
68279;Laerm;55108;51.790;10.960;2023-04-24T13:18:52;69.01;51.94;80.28;;
68279;Laerm;55108;51.790;10.960;2023-04-24T13:21:17;67.00;41.40;76.96;;
68279;Laerm;55108;51.790;10.960;2023-04-24T13:23:42;69.41;51.36;81.74;;
68279;Laerm;55108;51.790;10.960;2023-04-24T13:26:07;70.41;48.91;84.55;;
68279;Laerm;55108;51.790;10.960;2023-04-24T13:28:32;72.33;52.43;90.08;;
68279;Laerm;55108;51.790;10.960;2023-04-24T13:30:58;67.82;42.62;81.68;;
68279;Laerm;55108;51.790;10.960;2023-04-24T13:33:23;65.96;44.52;78.16;;